Currently 68°F in Temecula, California, USA
68°F
69°F / 68°F
4 mph SW
0.00"
Saturday, July 21, 2018 1:08 AM PDT

Temecula, California Weather Summary
Last 36 Hours

Temperature Winds Hourly Humidity Dewpoint
Time Report Norm Report Norm Max Gusts Precip. Rpt. Norm Rpt. Norm Pressure
1,3Sat 01:08 AM  68.2°F  67°F  4 mph SW  1 mph  6 mph  0.00"  86%  82%  64°F  61°F  30.04"
Sat 01:00 AM  68.4°F  67°F  4 mph S  1 mph  6 mph  0.00"  85%  82%  64°F  61°F  30.04"
2Sat 12:01 AM  69.5°F  68°F  1 mph SE  1 mph  5 mph  ----  82%  79%  64°F  61°F  30.04"
Sat 12:00 AM  69.4°F  68°F  1 mph E  1 mph  6 mph  0.00"  82%  79%  64°F  61°F  30.04"
Fri 11:00 PM  70.7°F  69°F  2 mph S  1 mph  7 mph  0.00"  78%  76%  63°F  61°F  30.05"
Fri 10:00 PM  71.7°F  71°F  3 mph S  2 mph  8 mph  0.00"  75%  72%  63°F  61°F  30.03"
Fri 09:00 PM  74.6°F  73°F  3 mph SE  3 mph  9 mph  0.00"  67%  66%  62°F  60°F  30.00"
Fri 08:00 PM  78.6°F  76°F  4 mph S  4 mph  10 mph  0.00"  58%  59%  62°F  60°F  29.98"
Fri 07:00 PM  83.0°F  80°F  5 mph SW  6 mph  14 mph  0.00"  51%  51%  62°F  60°F  29.96"
Fri 06:00 PM  84.0°F  84°F  6 mph S  8 mph  16 mph  0.00"  49%  45%  62°F  59°F  29.93"
Fri 05:00 PM  86.6°F  87°F  8 mph S  9 mph  18 mph  0.00"  45%  41%  62°F  59°F  29.95"
Fri 04:00 PM  84.5°F  88°F  8 mph W  9 mph  19 mph  0.00"  52%  38%  65°F  59°F  29.96"
Fri 03:00 PM  83.8°F  89°F  9 mph SW  10 mph  24 mph  0.00"  58%  37%  67°F  59°F  29.99"
Fri 02:00 PM  84.6°F  89°F  12 mph SW  9 mph  20 mph  0.00"  56%  37%  67°F  59°F  30.01"
Fri 01:00 PM  83.4°F  88°F  7 mph SW  8 mph  18 mph  0.00"  58%  39%  67°F  59°F  30.01"
Fri 12:00 PM  82.3°F  86°F  9 mph SW  7 mph  16 mph  0.00"  60%  43%  66°F  60°F  30.02"
Fri 11:00 AM  81.0°F  82°F  7 mph SW  4 mph  16 mph  0.00"  60%  50%  65°F  61°F  30.02"
Fri 10:00 AM  79.4°F  76°F  7 mph SW  2 mph  10 mph  0.00"  64%  62%  66°F  62°F  30.02"
Fri 09:00 AM  74.8°F  70°F  1 mph W  1 mph  7 mph  0.00"  71%  75%  65°F  62°F  30.02"
Fri 08:00 AM  69.4°F  66°F  3 mph S  1 mph  none  0.00"  84%  84%  64°F  61°F  30.02"
Fri 07:00 AM  66.9°F  64°F  calm  calm  none  0.00"  89%  88%  63°F  60°F  30.01"
Fri 06:00 AM  66.4°F  63°F  calm  calm  4 mph  0.00"  88%  87%  63°F  60°F  30.01"
Fri 05:00 AM  66.9°F  64°F  1 mph S  calm  4 mph  0.00"  87%  87%  63°F  60°F  30.01"
Fri 04:00 AM  67.8°F  65°F  calm  calm  6 mph  0.00"  86%  86%  63°F  60°F  30.02"
Fri 03:00 AM  68.5°F  65°F  calm  calm  4 mph  0.00"  83%  84%  63°F  60°F  30.01"
Fri 02:00 AM  69.7°F  66°F  calm  1 mph  none  0.00"  80%  83%  63°F  60°F  30.00"
Fri 01:00 AM  70.3°F  67°F  calm  1 mph  4 mph  0.00"  79%  82%  63°F  61°F  30.01"
Fri 12:00 AM  71.4°F  68°F  2 mph S  1 mph  4 mph  0.00"  77%  79%  63°F  61°F  30.02"
Thu 11:00 PM  72.6°F  69°F  1 mph S  1 mph  5 mph  0.00"  74%  76%  64°F  61°F  30.03"
Thu 10:00 PM  73.7°F  71°F  calm  2 mph  7 mph  0.00"  72%  72%  64°F  61°F  30.02"
Thu 09:00 PM  74.9°F  73°F  5 mph S  3 mph  8 mph  0.00"  68%  66%  63°F  60°F  30.02"
Thu 08:00 PM  76.2°F  76°F  5 mph SW  4 mph  11 mph  0.00"  63%  58%  62°F  60°F  30.00"
Thu 07:00 PM  80.9°F  80°F  4 mph SW  6 mph  12 mph  0.00"  56%  51%  63°F  60°F  29.96"
Thu 06:00 PM  82.5°F  84°F  5 mph SW  8 mph  19 mph  0.00"  54%  45%  64°F  59°F  29.94"
Thu 05:00 PM  83.0°F  87°F  10 mph SW  9 mph  21 mph  0.00"  54%  40%  64°F  59°F  29.94"
Thu 04:00 PM  85.6°F  88°F  10 mph SW  9 mph  28 mph  0.00"  51%  38%  65°F  59°F  29.96"
Thu 03:00 PM  86.5°F  89°F  13 mph SW  9 mph  23 mph  0.00"  49%  37%  64°F  59°F  29.97"
Thu 02:00 PM  89.5°F  89°F  8 mph SW  9 mph  21 mph  0.00"  45%  37%  65°F  59°F  29.98"

  1. Current weather data. No green row appears if the current weather data is also the high or low for the current day.
  2. High temperature for the current day.
  3. Low temperature for the current day.

The Temecula weather pages are a service of WeatherCurrents. Temecula, California is located in the Temecula Valley, in southwestern Riverside County, along the Interstate 15 highway. The Temecula Valley's rolling hills are home to the Temecula wine country, vineyards, golf courses, a casino resort, and Old Town Temecula.
Copyright ©Sat Jul 21 01:08:20 PDT 2018  WeatherCurrents. All rights reserved. - Submit questions and comments - Privacy Policy

This page automatically refreshes every 10 minutes.